createdAt,value
2022-10-15T00:01:17.963Z,45.30
2022-10-15T00:03:45.729Z,44.42
2022-10-15T00:06:17.942Z,43.22
2022-10-15T00:08:45.711Z,41.83
2022-10-15T00:11:21.778Z,43.25
2022-10-15T00:13:49.988Z,43.90
2022-10-15T00:16:21.103Z,44.42
2022-10-15T00:18:48.874Z,42.95
2022-10-15T00:21:18.083Z,41.78
2022-10-15T00:23:46.403Z,43.08
2022-10-15T00:26:16.409Z,42.97
2022-10-15T00:28:43.969Z,44.33
2022-10-15T00:31:14.395Z,44.00
2022-10-15T00:33:41.932Z,41.28
2022-10-15T00:36:19.108Z,41.40
2022-10-15T00:38:46.114Z,41.95
2022-10-15T00:41:20.633Z,39.90
2022-10-15T00:43:51.063Z,42.38
2022-10-15T00:46:21.018Z,41.17
2022-10-15T00:48:53.445Z,40.30
2022-10-15T00:51:22.445Z,39.30
2022-10-15T00:53:50.308Z,39.92
2022-10-15T00:56:21.760Z,40.78
2022-10-15T00:58:49.553Z,40.08
2022-10-15T01:01:16.675Z,41.00
2022-10-15T01:03:43.867Z,40.65
2022-10-15T01:06:10.772Z,39.67
2022-10-15T01:08:37.899Z,39.95
2022-10-15T01:11:23.235Z,40.40
2022-10-15T01:14:25.261Z,38.28
2022-10-15T01:17:00.616Z,39.97
2022-10-15T01:19:49.165Z,39.42
2022-10-15T01:22:25.122Z,35.88
2022-10-15T01:24:52.843Z,38.25
2022-10-15T01:27:32.939Z,39.17
2022-10-15T01:30:18.733Z,36.22
2022-10-15T01:33:04.100Z,37.20
2022-10-15T01:35:48.499Z,36.40
2022-10-15T01:38:28.956Z,36.72
2022-10-15T01:41:08.909Z,35.28
2022-10-15T01:43:47.336Z,35.30
2022-10-15T01:46:54.939Z,37.53
2022-10-15T01:49:28.029Z,35.80
2022-10-15T01:51:57.342Z,36.35
2022-10-15T01:54:27.271Z,39.60
2022-10-15T01:56:56.181Z,38.20
2022-10-15T01:59:27.551Z,35.97
2022-10-15T02:01:57.614Z,33.28
2022-10-15T02:04:31.265Z,32.97
2022-10-15T02:07:06.874Z,31.95
2022-10-15T02:10:02.069Z,32.30
2022-10-15T02:12:50.127Z,33.72
2022-10-15T02:15:18.979Z,34.08
2022-10-15T02:18:06.773Z,37.15
2022-10-15T02:21:00.064Z,39.03
2022-10-15T02:23:59.017Z,35.88
2022-10-15T02:26:29.379Z,37.05
2022-10-15T02:28:59.576Z,33.83
2022-10-15T02:31:29.657Z,32.88
2022-10-15T02:34:01.146Z,33.38
2022-10-15T02:36:29.840Z,33.00
2022-10-15T02:38:58.204Z,33.30
2022-10-15T02:41:25.229Z,34.05
2022-10-15T02:43:52.162Z,34.45
2022-10-15T02:46:20.415Z,34.22
2022-10-15T02:48:47.501Z,33.63
2022-10-15T02:51:17.654Z,33.55
2022-10-15T02:53:44.687Z,34.63
2022-10-15T02:56:11.687Z,33.70
2022-10-15T02:58:38.901Z,34.05
2022-10-15T03:01:06.580Z,33.78
2022-10-15T03:03:33.987Z,34.65
2022-10-15T03:06:01.622Z,34.03
2022-10-15T03:08:28.795Z,32.25
2022-10-15T03:10:55.924Z,35.85
2022-10-15T03:13:24.363Z,36.22
2022-10-15T03:15:53.060Z,34.92
2022-10-15T03:18:22.144Z,35.50
2022-10-15T03:20:56.407Z,35.17
2022-10-15T03:23:23.720Z,34.58
2022-10-15T03:25:58.771Z,34.50
2022-10-15T03:28:25.835Z,37.13
2022-10-15T03:30:53.148Z,37.28
2022-10-15T03:33:23.065Z,37.08
2022-10-15T03:35:53.139Z,36.78
2022-10-15T03:38:20.307Z,37.20
2022-10-15T03:40:49.859Z,36.30
2022-10-15T03:43:31.510Z,37.65
2022-10-15T03:46:05.406Z,37.58
2022-10-15T03:48:35.995Z,37.47
2022-10-15T03:51:03.088Z,39.28
2022-10-15T03:53:30.307Z,40.15
2022-10-15T03:56:06.555Z,38.22
2022-10-15T03:58:37.136Z,38.38
2022-10-15T04:01:15.827Z,36.90
2022-10-15T04:03:43.263Z,38.40
2022-10-15T04:06:10.624Z,38.70
2022-10-15T04:08:39.030Z,39.50
2022-10-15T04:11:19.531Z,39.08
2022-10-15T04:13:52.940Z,39.60
2022-10-15T04:16:19.979Z,40.72
2022-10-15T04:18:48.175Z,40.83
2022-10-15T04:21:15.270Z,41.28
2022-10-15T04:23:46.588Z,40.95
2022-10-15T04:26:23.094Z,40.25
2022-10-15T04:28:50.577Z,41.63
2022-10-15T04:31:20.184Z,42.30
2022-10-15T04:33:50.989Z,42.92
2022-10-15T04:38:54.247Z,43.55
2022-10-15T04:41:47.495Z,41.72
2022-10-15T04:44:17.753Z,42.15
2022-10-15T04:46:51.354Z,43.83
2022-10-15T04:49:41.328Z,44.05
2022-10-15T04:52:23.636Z,42.75
2022-10-15T04:54:58.601Z,43.20
2022-10-15T04:57:27.254Z,44.95
2022-10-15T04:59:57.669Z,44.97
2022-10-15T05:02:33.900Z,43.22
2022-10-15T05:05:29.887Z,43.40
2022-10-15T05:08:01.072Z,46.00
2022-10-15T05:10:29.668Z,44.33
2022-10-15T05:12:58.449Z,44.65
2022-10-15T05:17:59.080Z,45.28
2022-10-15T05:20:33.863Z,45.17
2022-10-15T05:23:00.819Z,46.33
2022-10-15T05:25:33.361Z,46.25
2022-10-15T05:28:00.927Z,46.53
2022-10-15T05:30:28.770Z,48.92
2022-10-15T05:32:56.942Z,47.40
2022-10-15T05:35:24.263Z,48.17
2022-10-15T05:38:02.433Z,47.85
2022-10-15T05:40:29.566Z,50.28
2022-10-15T05:43:09.912Z,46.72
2022-10-15T05:45:36.931Z,48.90
2022-10-15T05:48:06.237Z,48.95
2022-10-15T05:50:33.488Z,48.78
2022-10-15T05:53:02.606Z,50.13
2022-10-15T05:55:45.438Z,49.83
2022-10-15T05:58:12.439Z,47.60
2022-10-15T06:00:42.186Z,48.05
2022-10-15T06:03:14.931Z,46.25
2022-10-15T06:05:42.428Z,48.92
2022-10-15T06:08:09.473Z,48.72
2022-10-15T06:10:37.875Z,48.92
2022-10-15T06:13:05.599Z,48.47
2022-10-15T06:15:33.729Z,51.53
2022-10-15T06:18:01.869Z,48.08
2022-10-15T06:20:28.859Z,50.00
2022-10-15T06:22:59.878Z,50.45
2022-10-15T06:25:27.774Z,49.28
2022-10-15T06:27:54.706Z,50.40
2022-10-15T06:30:24.466Z,51.05
2022-10-15T06:32:53.256Z,51.47
2022-10-15T06:35:21.803Z,50.45
2022-10-15T06:37:49.247Z,48.85
2022-10-15T06:40:16.399Z,49.33
2022-10-15T06:42:44.174Z,50.38
2022-10-15T06:45:11.811Z,50.67
2022-10-15T06:47:40.839Z,50.40
2022-10-15T06:50:08.115Z,48.25
2022-10-15T06:52:37.335Z,48.78
2022-10-15T06:55:05.349Z,49.53
2022-10-15T06:57:32.312Z,49.05
2022-10-15T06:59:59.280Z,47.83
2022-10-15T07:02:26.499Z,48.45
2022-10-15T07:04:53.664Z,50.20
2022-10-15T07:07:20.714Z,50.53
2022-10-15T07:09:47.899Z,49.83
2022-10-15T07:12:16.264Z,47.63
2022-10-15T07:14:43.243Z,49.88
2022-10-15T07:17:10.215Z,48.50
2022-10-15T07:19:37.194Z,49.80
2022-10-15T07:22:04.113Z,50.08
2022-10-15T07:24:31.045Z,49.75
2022-10-15T07:26:58.101Z,51.00
2022-10-15T07:29:25.077Z,47.88
2022-10-15T07:31:52.049Z,48.47
2022-10-15T07:34:19.503Z,50.65
2022-10-15T07:36:46.477Z,51.00
2022-10-15T07:39:13.681Z,51.10
2022-10-15T07:41:40.679Z,49.55
2022-10-15T07:44:07.608Z,50.83
2022-10-15T07:46:34.583Z,50.83
2022-10-15T07:49:01.667Z,50.80
2022-10-15T07:51:28.696Z,49.03
2022-10-15T07:53:56.131Z,51.17
2022-10-15T07:56:23.076Z,48.38
2022-10-15T07:58:52.782Z,49.30
2022-10-15T08:01:21.386Z,48.00
2022-10-15T08:03:48.545Z,49.47
2022-10-15T08:06:15.967Z,49.13
2022-10-15T08:08:43.229Z,48.30
2022-10-15T08:11:13.276Z,51.47
2022-10-15T08:13:42.377Z,49.58
2022-10-15T08:16:11.100Z,50.78
2022-10-15T08:18:39.005Z,50.83
2022-10-15T08:21:07.806Z,49.40
2022-10-15T08:23:35.785Z,49.72
2022-10-15T08:26:03.654Z,48.95
2022-10-15T08:28:32.151Z,50.13
2022-10-15T08:31:04.293Z,49.15
2022-10-15T08:36:00.055Z,48.25
2022-10-15T08:38:27.117Z,45.67
2022-10-15T08:41:00.101Z,46.30
2022-10-15T08:43:38.541Z,46.65
2022-10-15T08:48:48.723Z,47.85
2022-10-15T08:51:22.887Z,50.00
2022-10-15T08:53:57.597Z,49.63
2022-10-15T08:56:30.193Z,50.33
2022-10-15T08:59:23.690Z,47.63
2022-10-15T09:01:53.068Z,47.03
2022-10-15T09:04:40.196Z,46.67
2022-10-15T09:07:23.685Z,48.05
2022-10-15T09:10:16.681Z,46.42
2022-10-15T09:12:52.426Z,47.13
2022-10-15T09:15:23.986Z,48.25
2022-10-15T09:17:55.097Z,47.15
2022-10-15T09:20:34.541Z,47.78
2022-10-15T09:23:01.754Z,46.83
2022-10-15T09:26:08.795Z,51.53
2022-10-15T09:29:07.755Z,49.70
2022-10-15T09:31:45.870Z,51.17
2022-10-15T09:34:22.969Z,50.10
2022-10-15T09:37:01.029Z,48.15
2022-10-15T09:40:05.192Z,49.28
2022-10-15T09:42:39.640Z,50.45
2022-10-15T09:45:16.171Z,49.10
2022-10-15T09:47:44.323Z,50.55
2022-10-15T09:50:14.389Z,49.90
2022-10-15T09:53:18.073Z,51.60
2022-10-15T09:55:50.888Z,50.87
2022-10-15T09:58:26.448Z,52.38
2022-10-15T10:01:03.558Z,53.28
2022-10-15T10:03:36.972Z,53.30
2022-10-15T10:06:12.036Z,52.42
2022-10-15T10:08:55.516Z,51.63
2022-10-15T10:11:24.180Z,52.42
2022-10-15T10:14:00.166Z,52.00
2022-10-15T10:16:27.785Z,52.58
2022-10-15T10:19:05.570Z,53.53
2022-10-15T10:21:35.753Z,52.78
2022-10-15T10:24:30.852Z,54.67
2022-10-15T10:26:59.476Z,52.72
2022-10-15T10:29:35.726Z,53.50
2022-10-15T10:32:22.103Z,55.45
2022-10-15T10:34:52.647Z,52.70
2022-10-15T10:37:20.570Z,54.03
2022-10-15T10:39:56.913Z,53.00
2022-10-15T10:42:32.746Z,55.22
2022-10-15T10:45:19.046Z,53.75
2022-10-15T10:47:46.852Z,54.22
2022-10-15T10:50:32.847Z,56.42
2022-10-15T10:53:18.491Z,52.33
2022-10-15T10:55:46.220Z,54.92
2022-10-15T10:58:23.377Z,57.55
2022-10-15T11:00:55.180Z,54.90
2022-10-15T11:03:38.475Z,53.20
2022-10-15T11:06:32.454Z,58.90
2022-10-15T11:09:09.139Z,55.53
2022-10-15T11:11:50.099Z,56.17
2022-10-15T11:14:32.280Z,53.53
2022-10-15T11:17:17.448Z,54.85
2022-10-15T11:22:46.251Z,57.00
2022-10-15T11:25:41.780Z,52.28
2022-10-15T11:28:23.668Z,53.42
2022-10-15T11:31:01.746Z,54.47
2022-10-15T11:33:59.758Z,54.30
2022-10-15T11:37:05.343Z,55.22
2022-10-15T11:40:04.862Z,52.08
2022-10-15T11:42:38.741Z,52.75
2022-10-15T11:45:08.488Z,53.78
2022-10-15T11:47:55.979Z,52.65
2022-10-15T11:50:39.677Z,55.17
2022-10-15T11:53:21.921Z,55.28
2022-10-15T11:56:01.829Z,53.20
2022-10-15T11:58:34.442Z,54.80
2022-10-15T12:01:10.907Z,56.45
2022-10-15T12:03:50.961Z,55.35
2022-10-15T12:06:21.224Z,54.72
2022-10-15T12:08:49.447Z,57.15
2022-10-15T12:11:49.944Z,54.88
2022-10-15T12:14:50.923Z,55.90
2022-10-15T12:17:34.495Z,54.58
2022-10-15T12:20:21.744Z,53.97
2022-10-15T12:22:56.625Z,55.33
2022-10-15T12:25:35.554Z,54.78
2022-10-15T12:28:08.338Z,55.67
2022-10-15T12:30:37.750Z,55.60
2022-10-15T12:33:23.423Z,54.70
2022-10-15T12:36:19.601Z,54.63
2022-10-15T12:39:16.067Z,50.03
2022-10-15T12:41:54.165Z,50.75
2022-10-15T12:44:21.054Z,53.03
2022-10-15T12:46:49.691Z,51.67
2022-10-15T12:49:32.384Z,52.03
2022-10-15T12:52:01.230Z,51.42
2022-10-15T12:54:41.868Z,49.72
2022-10-15T12:57:30.721Z,49.00
2022-10-15T13:00:02.170Z,48.45
2022-10-15T13:03:01.153Z,48.00
2022-10-15T13:05:29.386Z,47.42
2022-10-15T13:07:58.393Z,47.92
2022-10-15T13:10:38.467Z,45.33
2022-10-15T13:13:07.571Z,48.95
2022-10-15T13:15:34.938Z,50.85
2022-10-15T13:18:08.648Z,47.65
2022-10-15T13:20:39.026Z,47.08
2022-10-15T13:23:29.429Z,49.95
2022-10-15T13:26:26.896Z,46.85
2022-10-15T13:28:57.854Z,48.08
2022-10-15T13:31:32.084Z,48.13
2022-10-15T13:34:11.228Z,50.13
2022-10-15T13:36:39.482Z,47.95
2022-10-15T13:39:28.346Z,46.65
2022-10-15T13:42:09.027Z,49.15
2022-10-15T13:44:36.575Z,46.85
2022-10-15T13:47:17.339Z,48.05
2022-10-15T13:49:44.300Z,46.85
2022-10-15T13:52:11.237Z,47.22
2022-10-15T13:54:39.377Z,45.30
2022-10-15T13:57:06.373Z,46.30
2022-10-15T13:59:33.369Z,46.42
2022-10-15T14:02:02.304Z,45.47
2022-10-15T14:04:31.631Z,45.80
2022-10-15T14:07:21.007Z,46.30
2022-10-15T14:09:50.433Z,44.53
2022-10-15T14:12:17.435Z,46.78
2022-10-15T14:14:46.918Z,45.45
2022-10-15T14:17:17.601Z,45.90
2022-10-15T14:20:21.599Z,45.08
2022-10-15T14:22:49.383Z,43.50
2022-10-15T14:25:25.444Z,43.67
2022-10-15T14:27:53.598Z,45.95
2022-10-15T14:30:36.709Z,45.35
2022-10-15T14:35:36.597Z,45.65
2022-10-15T14:38:05.062Z,44.08
2022-10-15T14:40:32.270Z,45.83
2022-10-15T14:43:08.845Z,46.50
2022-10-15T14:45:35.735Z,45.53
2022-10-15T14:48:20.961Z,45.35
2022-10-15T14:50:48.027Z,46.13
2022-10-15T14:53:26.197Z,46.13
2022-10-15T14:56:02.661Z,43.28
2022-10-15T14:58:30.403Z,43.92
2022-10-15T15:01:06.648Z,45.25
2022-10-15T15:03:50.968Z,45.72
2022-10-15T15:06:18.413Z,44.80
2022-10-15T15:08:46.356Z,43.38
2022-10-15T15:11:22.745Z,45.05
2022-10-15T15:13:50.010Z,42.67
2022-10-15T15:16:18.432Z,42.53
2022-10-15T15:18:46.562Z,43.35
2022-10-15T15:21:16.752Z,42.25
2022-10-15T15:23:44.390Z,41.00
2022-10-15T15:26:11.575Z,42.50
2022-10-15T15:28:38.597Z,43.38
2022-10-15T15:31:15.665Z,40.45
2022-10-15T15:33:42.645Z,41.70
2022-10-15T15:36:21.026Z,40.88
2022-10-15T15:38:59.879Z,40.83
2022-10-15T15:41:27.201Z,40.75
2022-10-15T15:43:56.860Z,42.55
2022-10-15T15:46:23.837Z,42.85
2022-10-15T15:48:50.767Z,42.83
2022-10-15T15:51:22.369Z,41.13
2022-10-15T15:53:49.516Z,42.90
2022-10-15T15:56:17.094Z,43.17
2022-10-15T15:58:44.148Z,44.38
2022-10-15T16:01:12.516Z,44.38
2022-10-15T16:03:39.484Z,41.72
2022-10-15T16:06:08.536Z,42.60
2022-10-15T16:08:37.226Z,44.72
2022-10-15T16:11:06.189Z,44.50
2022-10-15T16:13:33.862Z,42.92
2022-10-15T16:16:00.929Z,42.00
2022-10-15T16:18:27.848Z,43.22
2022-10-15T16:20:55.291Z,45.90
2022-10-15T16:23:22.349Z,43.63
2022-10-15T16:25:49.448Z,43.80
2022-10-15T16:28:16.441Z,43.58
2022-10-15T16:30:43.419Z,42.75
2022-10-15T16:33:10.519Z,44.25
2022-10-15T16:35:37.764Z,43.45
2022-10-15T16:38:04.737Z,44.45
2022-10-15T16:40:32.307Z,45.53
2022-10-15T16:42:59.742Z,43.88
2022-10-15T16:45:26.730Z,43.30
2022-10-15T16:47:54.520Z,42.80
2022-10-15T16:50:21.817Z,44.05
2022-10-15T16:52:48.881Z,46.33
2022-10-15T16:55:16.891Z,44.17
2022-10-15T16:57:44.527Z,43.05
2022-10-15T17:00:12.312Z,44.58
2022-10-15T17:02:39.514Z,47.70
2022-10-15T17:05:07.164Z,46.88
2022-10-15T17:07:34.120Z,44.78
2022-10-15T17:10:01.760Z,46.25
2022-10-15T17:12:29.075Z,45.60
2022-10-15T17:14:56.069Z,44.08
2022-10-15T17:17:23.386Z,45.40
2022-10-15T17:19:51.310Z,45.22
2022-10-15T17:22:18.329Z,47.03
2022-10-15T17:24:45.672Z,46.35
2022-10-15T17:27:13.175Z,45.85
2022-10-15T17:29:40.173Z,48.90
2022-10-15T17:32:07.178Z,46.08
2022-10-15T17:34:34.336Z,45.65
2022-10-15T17:37:02.115Z,44.72
2022-10-15T17:39:29.064Z,46.00
2022-10-15T17:41:56.044Z,47.72
2022-10-15T17:44:23.107Z,47.67
2022-10-15T17:46:50.566Z,49.35
2022-10-15T17:49:18.996Z,47.38
2022-10-15T17:51:46.494Z,44.13
2022-10-15T17:54:13.459Z,46.60
2022-10-15T17:56:40.703Z,45.97
2022-10-15T17:59:10.714Z,43.85
2022-10-15T18:01:57.450Z,44.25
2022-10-15T18:04:26.044Z,43.13
2022-10-15T18:06:52.987Z,45.40
2022-10-15T18:09:28.619Z,45.00
2022-10-15T18:12:00.525Z,46.63
2022-10-15T18:14:29.010Z,45.80
2022-10-15T18:16:56.132Z,46.92
2022-10-15T18:19:23.883Z,42.22
2022-10-15T18:21:50.829Z,43.60
2022-10-15T18:24:21.757Z,43.28
2022-10-15T18:26:50.669Z,41.17
2022-10-15T18:29:17.764Z,42.50
2022-10-15T18:31:46.694Z,40.80
2022-10-15T18:34:14.014Z,40.08
2022-10-15T18:36:42.507Z,40.72
2022-10-15T18:39:10.418Z,40.55
2022-10-15T18:41:38.299Z,40.50
2022-10-15T18:44:12.435Z,39.28
2022-10-15T18:46:42.351Z,38.78
2022-10-15T18:49:09.495Z,37.55
2022-10-15T18:51:36.861Z,38.42
2022-10-15T18:54:04.117Z,39.88
2022-10-15T18:56:31.076Z,39.03
2022-10-15T18:58:58.051Z,39.45
2022-10-15T19:01:25.227Z,39.03
2022-10-15T19:03:53.033Z,39.53
2022-10-15T19:06:27.454Z,37.92
2022-10-15T19:09:01.081Z,37.55
2022-10-15T19:11:31.664Z,38.75
2022-10-15T19:14:00.402Z,39.05
2022-10-15T19:16:28.170Z,37.72
2022-10-15T19:19:01.116Z,39.13
2022-10-15T19:21:28.246Z,38.15
2022-10-15T19:23:55.242Z,37.28
2022-10-15T19:26:23.352Z,37.55
2022-10-15T19:28:53.513Z,35.63
2022-10-15T19:31:29.567Z,35.38
2022-10-15T19:33:59.776Z,37.38
2022-10-15T19:36:42.232Z,36.88
2022-10-15T19:39:16.436Z,36.85
2022-10-15T19:41:44.603Z,38.67
2022-10-15T19:44:13.957Z,36.30
2022-10-15T19:46:41.409Z,37.67
2022-10-15T19:49:11.459Z,37.42
2022-10-15T19:51:39.104Z,35.72
2022-10-15T19:54:06.054Z,36.33
2022-10-15T19:56:33.260Z,36.05
2022-10-15T19:59:02.681Z,34.80
2022-10-15T20:01:30.565Z,37.35
2022-10-15T20:04:03.184Z,37.28
2022-10-15T20:06:33.875Z,35.85
2022-10-15T20:09:02.149Z,39.00
2022-10-15T20:11:29.323Z,37.88
2022-10-15T20:13:56.433Z,36.53
2022-10-15T20:16:24.223Z,38.85
2022-10-15T20:18:51.799Z,37.40
2022-10-15T20:21:18.793Z,34.90
2022-10-15T20:23:47.835Z,36.97
2022-10-15T20:26:16.244Z,36.58
2022-10-15T20:28:44.780Z,37.58
2022-10-15T20:31:17.393Z,36.10
2022-10-15T20:33:45.023Z,36.70
2022-10-15T20:36:21.163Z,36.53
2022-10-15T20:38:51.079Z,36.67
2022-10-15T20:41:18.371Z,35.40
2022-10-15T20:43:47.237Z,38.53
2022-10-15T20:46:18.254Z,37.92
2022-10-15T20:48:46.229Z,36.78
2022-10-15T20:51:16.382Z,36.55
2022-10-15T20:53:44.363Z,34.17
2022-10-15T20:56:11.303Z,37.60
2022-10-15T20:58:38.343Z,35.25
2022-10-15T21:01:07.766Z,36.35
2022-10-15T21:03:34.951Z,34.60
2022-10-15T21:06:02.003Z,35.92
2022-10-15T21:08:28.968Z,37.38
2022-10-15T21:11:04.331Z,35.88
2022-10-15T21:13:31.650Z,37.60
2022-10-15T21:16:00.678Z,38.17
2022-10-15T21:18:28.496Z,37.35
2022-10-15T21:21:06.368Z,38.20
2022-10-15T21:23:34.098Z,37.15
2022-10-15T21:26:06.196Z,37.17
2022-10-15T21:28:35.495Z,36.07
2022-10-15T21:31:13.301Z,36.85
2022-10-15T21:33:41.116Z,38.05
2022-10-15T21:36:11.832Z,36.90
2022-10-15T21:38:39.047Z,36.22
2022-10-15T21:41:06.235Z,36.38
2022-10-15T21:43:33.336Z,35.28
2022-10-15T21:46:12.226Z,37.38
2022-10-15T21:48:40.120Z,37.47
2022-10-15T21:51:19.476Z,37.20
2022-10-15T21:53:46.681Z,37.85
2022-10-15T21:56:13.901Z,37.08
2022-10-15T21:58:41.318Z,36.70
2022-10-15T22:01:19.149Z,37.60
2022-10-15T22:03:47.523Z,37.72
2022-10-15T22:06:15.352Z,35.90
2022-10-15T22:08:42.619Z,38.05
2022-10-15T22:11:14.245Z,38.13
2022-10-15T22:13:43.476Z,38.65
2022-10-15T22:16:10.886Z,38.42
2022-10-15T22:18:38.339Z,37.15
2022-10-15T22:21:15.833Z,38.67
2022-10-15T22:23:47.954Z,39.50
2022-10-15T22:26:17.707Z,37.85
2022-10-15T22:28:45.193Z,37.47
2022-10-15T22:31:16.712Z,36.90
2022-10-15T22:33:45.621Z,36.90
2022-10-15T22:36:18.334Z,38.88
2022-10-15T22:38:47.492Z,36.42
2022-10-15T22:41:15.614Z,37.42
2022-10-15T22:43:43.020Z,38.72
2022-10-15T22:46:10.719Z,36.85
2022-10-15T22:48:40.388Z,38.58
2022-10-15T22:51:10.126Z,38.17
2022-10-15T22:53:37.622Z,38.25
2022-10-15T22:56:10.950Z,37.72
2022-10-15T22:58:37.970Z,38.15
2022-10-15T23:01:18.699Z,36.97
2022-10-15T23:03:49.784Z,37.58
2022-10-15T23:06:18.196Z,38.30
2022-10-15T23:08:47.355Z,37.45
2022-10-15T23:11:18.990Z,37.38
2022-10-15T23:13:47.374Z,36.53
2022-10-15T23:16:17.447Z,39.72
2022-10-15T23:18:46.209Z,38.55
2022-10-15T23:21:18.539Z,36.45
2022-10-15T23:23:46.159Z,39.08
2022-10-15T23:26:16.072Z,39.53
2022-10-15T23:28:44.431Z,40.40
2022-10-15T23:31:19.387Z,39.05
2022-10-15T23:33:47.115Z,38.75
2022-10-15T23:36:14.811Z,37.90
2022-10-15T23:38:41.760Z,38.13
2022-10-15T23:41:10.106Z,39.40
2022-10-15T23:43:37.545Z,38.88
2022-10-15T23:46:04.596Z,40.78
2022-10-15T23:48:31.593Z,38.35
2022-10-15T23:51:02.433Z,40.13
2022-10-15T23:53:32.993Z,40.08
2022-10-15T23:56:02.901Z,39.92
2022-10-15T23:58:32.303Z,40.03
